sensor_id;sensor_type;location;lat;lon;timestamp;temperature;humidity
71142;DHT22;58808;59.366;17.970;2023-12-07T00:01:10;-8.50;99.90
71142;DHT22;58808;59.366;17.970;2023-12-07T00:03:35;-8.50;99.90
71142;DHT22;58808;59.366;17.970;2023-12-07T00:06:01;-8.50;99.90
71142;DHT22;58808;59.366;17.970;2023-12-07T00:08:27;-8.50;99.90
71142;DHT22;58808;59.366;17.970;2023-12-07T00:10:52;-8.50;99.90
71142;DHT22;58808;59.366;17.970;2023-12-07T00:13:18;-8.50;99.90
71142;DHT22;58808;59.366;17.970;2023-12-07T00:15:44;-8.40;99.90
71142;DHT22;58808;59.366;17.970;2023-12-07T00:18:09;-8.40;99.90
71142;DHT22;58808;59.366;17.970;2023-12-07T00:20:35;-8.40;99.90
71142;DHT22;58808;59.366;17.970;2023-12-07T00:23:01;-8.40;99.90
71142;DHT22;58808;59.366;17.970;2023-12-07T00:25:26;-8.30;99.90
71142;DHT22;58808;59.366;17.970;2023-12-07T00:27:52;-8.30;99.90
71142;DHT22;58808;59.366;17.970;2023-12-07T00:30:18;-8.30;99.90
71142;DHT22;58808;59.366;17.970;2023-12-07T00:32:43;-8.30;99.90
71142;DHT22;58808;59.366;17.970;2023-12-07T00:35:10;-8.30;99.90
71142;DHT22;58808;59.366;17.970;2023-12-07T00:37:36;-8.30;99.90
71142;DHT22;58808;59.366;17.970;2023-12-07T00:40:02;-8.30;99.90
71142;DHT22;58808;59.366;17.970;2023-12-07T00:42:29;-8.20;99.90
71142;DHT22;58808;59.366;17.970;2023-12-07T00:44:55;-8.20;99.90
71142;DHT22;58808;59.366;17.970;2023-12-07T00:47:21;-8.20;99.90
71142;DHT22;58808;59.366;17.970;2023-12-07T00:49:47;-8.20;99.90
71142;DHT22;58808;59.366;17.970;2023-12-07T00:52:13;-8.20;99.90
71142;DHT22;58808;59.366;17.970;2023-12-07T00:54:39;-8.10;99.90
71142;DHT22;58808;59.366;17.970;2023-12-07T00:57:05;-8.10;99.90
71142;DHT22;58808;59.366;17.970;2023-12-07T00:59:31;-8.10;99.90
71142;DHT22;58808;59.366;17.970;2023-12-07T01:02:05;-8.10;99.90
71142;DHT22;58808;59.366;17.970;2023-12-07T01:04:32;-8.00;99.90
71142;DHT22;58808;59.366;17.970;2023-12-07T01:06:58;-8.00;99.90
71142;DHT22;58808;59.366;17.970;2023-12-07T01:09:24;-8.00;99.90
71142;DHT22;58808;59.366;17.970;2023-12-07T01:11:50;-8.00;99.90
71142;DHT22;58808;59.366;17.970;2023-12-07T01:14:16;-8.00;99.90
71142;DHT22;58808;59.366;17.970;2023-12-07T01:16:42;-8.00;99.90
71142;DHT22;58808;59.366;17.970;2023-12-07T01:19:08;-7.90;99.90
71142;DHT22;58808;59.366;17.970;2023-12-07T01:21:34;-7.90;99.90
71142;DHT22;58808;59.366;17.970;2023-12-07T01:24:00;-7.90;99.90
71142;DHT22;58808;59.366;17.970;2023-12-07T01:26:25;-7.90;99.90
71142;DHT22;58808;59.366;17.970;2023-12-07T01:28:51;-7.80;99.90
71142;DHT22;58808;59.366;17.970;2023-12-07T01:31:17;-7.80;99.90
71142;DHT22;58808;59.366;17.970;2023-12-07T01:33:46;-7.80;99.90
71142;DHT22;58808;59.366;17.970;2023-12-07T01:36:11;-7.80;99.90
71142;DHT22;58808;59.366;17.970;2023-12-07T01:38:37;-7.80;99.90
71142;DHT22;58808;59.366;17.970;2023-12-07T01:41:03;-7.80;99.90
71142;DHT22;58808;59.366;17.970;2023-12-07T01:43:29;-7.80;99.90
71142;DHT22;58808;59.366;17.970;2023-12-07T01:45:57;-7.70;99.90
71142;DHT22;58808;59.366;17.970;2023-12-07T01:48:24;-7.70;99.90
71142;DHT22;58808;59.366;17.970;2023-12-07T01:50:50;-7.70;99.90
71142;DHT22;58808;59.366;17.970;2023-12-07T01:53:17;-7.70;99.90
71142;DHT22;58808;59.366;17.970;2023-12-07T01:55:43;-7.70;99.90
71142;DHT22;58808;59.366;17.970;2023-12-07T01:58:10;-7.70;99.90
71142;DHT22;58808;59.366;17.970;2023-12-07T02:00:36;-7.60;99.90
71142;DHT22;58808;59.366;17.970;2023-12-07T02:03:05;-7.60;99.90
71142;DHT22;58808;59.366;17.970;2023-12-07T02:05:33;-7.60;99.90
71142;DHT22;58808;59.366;17.970;2023-12-07T02:07:59;-7.60;99.90
71142;DHT22;58808;59.366;17.970;2023-12-07T02:10:25;-7.50;99.90
71142;DHT22;58808;59.366;17.970;2023-12-07T02:12:51;-7.50;99.90
71142;DHT22;58808;59.366;17.970;2023-12-07T02:15:19;-7.50;99.90
71142;DHT22;58808;59.366;17.970;2023-12-07T02:17:57;-7.50;99.90
71142;DHT22;58808;59.366;17.970;2023-12-07T02:20:30;-7.50;99.90
71142;DHT22;58808;59.366;17.970;2023-12-07T02:23:03;-7.50;99.90
71142;DHT22;58808;59.366;17.970;2023-12-07T02:25:44;-7.50;99.90
71142;DHT22;58808;59.366;17.970;2023-12-07T02:28:10;-7.40;99.90
71142;DHT22;58808;59.366;17.970;2023-12-07T02:30:35;-7.40;99.90
71142;DHT22;58808;59.366;17.970;2023-12-07T02:33:01;-7.40;99.90
71142;DHT22;58808;59.366;17.970;2023-12-07T02:35:28;-7.40;99.90
71142;DHT22;58808;59.366;17.970;2023-12-07T02:37:54;-7.40;99.90
71142;DHT22;58808;59.366;17.970;2023-12-07T02:40:25;-7.30;99.90
71142;DHT22;58808;59.366;17.970;2023-12-07T02:42:53;-7.30;99.90
71142;DHT22;58808;59.366;17.970;2023-12-07T02:45:19;-7.40;99.90
71142;DHT22;58808;59.366;17.970;2023-12-07T02:47:45;-7.40;99.90
71142;DHT22;58808;59.366;17.970;2023-12-07T02:50:12;-7.40;99.90
71142;DHT22;58808;59.366;17.970;2023-12-07T02:52:38;-7.40;99.90
71142;DHT22;58808;59.366;17.970;2023-12-07T02:55:04;-7.40;99.90
71142;DHT22;58808;59.366;17.970;2023-12-07T02:57:30;-7.40;99.90
71142;DHT22;58808;59.366;17.970;2023-12-07T02:59:56;-7.40;99.90
71142;DHT22;58808;59.366;17.970;2023-12-07T03:02:22;-7.40;99.90
71142;DHT22;58808;59.366;17.970;2023-12-07T03:04:48;-7.40;99.90
71142;DHT22;58808;59.366;17.970;2023-12-07T03:07:13;-7.40;99.90
71142;DHT22;58808;59.366;17.970;2023-12-07T03:09:39;-7.40;99.90
71142;DHT22;58808;59.366;17.970;2023-12-07T03:12:06;-7.40;99.90
71142;DHT22;58808;59.366;17.970;2023-12-07T03:14:32;-7.40;99.90
71142;DHT22;58808;59.366;17.970;2023-12-07T03:16:58;-7.40;99.90
71142;DHT22;58808;59.366;17.970;2023-12-07T03:19:24;-7.40;99.90
71142;DHT22;58808;59.366;17.970;2023-12-07T03:21:50;-7.40;99.90
71142;DHT22;58808;59.366;17.970;2023-12-07T03:24:15;-7.40;99.90
71142;DHT22;58808;59.366;17.970;2023-12-07T03:26:41;-7.40;99.90
71142;DHT22;58808;59.366;17.970;2023-12-07T03:29:07;-7.40;99.90
71142;DHT22;58808;59.366;17.970;2023-12-07T03:31:32;-7.40;99.90
71142;DHT22;58808;59.366;17.970;2023-12-07T03:33:58;-7.40;99.90
71142;DHT22;58808;59.366;17.970;2023-12-07T03:36:24;-7.40;99.90
71142;DHT22;58808;59.366;17.970;2023-12-07T03:38:50;-7.40;99.90
71142;DHT22;58808;59.366;17.970;2023-12-07T03:41:16;-7.40;99.90
71142;DHT22;58808;59.366;17.970;2023-12-07T03:43:42;-7.40;99.90
71142;DHT22;58808;59.366;17.970;2023-12-07T03:46:07;-7.40;99.90
71142;DHT22;58808;59.366;17.970;2023-12-07T03:48:34;-7.40;99.90
71142;DHT22;58808;59.366;17.970;2023-12-07T03:51:00;-7.40;99.90
71142;DHT22;58808;59.366;17.970;2023-12-07T03:53:26;-7.30;99.90
71142;DHT22;58808;59.366;17.970;2023-12-07T03:55:52;-7.30;99.90
71142;DHT22;58808;59.366;17.970;2023-12-07T03:58:18;-7.30;99.90
71142;DHT22;58808;59.366;17.970;2023-12-07T04:00:44;-7.30;99.90
71142;DHT22;58808;59.366;17.970;2023-12-07T04:03:10;-7.30;99.90
71142;DHT22;58808;59.366;17.970;2023-12-07T04:05:36;-7.30;99.90
71142;DHT22;58808;59.366;17.970;2023-12-07T04:08:03;-7.30;99.90
71142;DHT22;58808;59.366;17.970;2023-12-07T04:10:30;-7.20;99.90
71142;DHT22;58808;59.366;17.970;2023-12-07T04:12:56;-7.30;99.90
71142;DHT22;58808;59.366;17.970;2023-12-07T04:15:22;-7.30;99.90
71142;DHT22;58808;59.366;17.970;2023-12-07T04:17:48;-7.30;99.90
71142;DHT22;58808;59.366;17.970;2023-12-07T04:20:14;-7.30;99.90
71142;DHT22;58808;59.366;17.970;2023-12-07T04:22:40;-7.30;99.90
71142;DHT22;58808;59.366;17.970;2023-12-07T04:25:06;-7.30;99.90
71142;DHT22;58808;59.366;17.970;2023-12-07T04:27:35;-7.30;99.90
71142;DHT22;58808;59.366;17.970;2023-12-07T04:30:01;-7.30;99.90
71142;DHT22;58808;59.366;17.970;2023-12-07T04:32:26;-7.30;99.90
71142;DHT22;58808;59.366;17.970;2023-12-07T04:34:52;-7.30;99.90
71142;DHT22;58808;59.366;17.970;2023-12-07T04:37:19;-7.30;99.90
71142;DHT22;58808;59.366;17.970;2023-12-07T04:39:44;-7.20;99.90
71142;DHT22;58808;59.366;17.970;2023-12-07T04:42:10;-7.30;99.90
71142;DHT22;58808;59.366;17.970;2023-12-07T04:44:36;-7.20;99.90
71142;DHT22;58808;59.366;17.970;2023-12-07T04:47:01;-7.20;99.90
71142;DHT22;58808;59.366;17.970;2023-12-07T04:49:27;-7.20;99.90
71142;DHT22;58808;59.366;17.970;2023-12-07T04:51:52;-7.20;99.90
71142;DHT22;58808;59.366;17.970;2023-12-07T04:54:18;-7.20;99.90
71142;DHT22;58808;59.366;17.970;2023-12-07T04:56:45;-7.20;99.90
71142;DHT22;58808;59.366;17.970;2023-12-07T04:59:10;-7.20;99.90
71142;DHT22;58808;59.366;17.970;2023-12-07T05:01:36;-7.20;99.90
71142;DHT22;58808;59.366;17.970;2023-12-07T05:04:06;-7.10;99.90
71142;DHT22;58808;59.366;17.970;2023-12-07T05:06:32;-7.10;99.90
71142;DHT22;58808;59.366;17.970;2023-12-07T05:08:57;-7.10;99.90
71142;DHT22;58808;59.366;17.970;2023-12-07T05:11:23;-7.00;99.90
71142;DHT22;58808;59.366;17.970;2023-12-07T05:13:49;-7.00;99.90
71142;DHT22;58808;59.366;17.970;2023-12-07T05:16:14;-7.00;99.90
71142;DHT22;58808;59.366;17.970;2023-12-07T05:18:40;-7.00;99.90
71142;DHT22;58808;59.366;17.970;2023-12-07T05:21:06;-6.90;99.90
71142;DHT22;58808;59.366;17.970;2023-12-07T05:23:33;-6.90;99.90
71142;DHT22;58808;59.366;17.970;2023-12-07T05:25:59;-6.90;99.90
71142;DHT22;58808;59.366;17.970;2023-12-07T05:28:25;-6.90;99.90
71142;DHT22;58808;59.366;17.970;2023-12-07T05:30:51;-6.90;99.90
71142;DHT22;58808;59.366;17.970;2023-12-07T05:33:18;-6.80;99.90
71142;DHT22;58808;59.366;17.970;2023-12-07T05:35:45;-6.80;99.90
71142;DHT22;58808;59.366;17.970;2023-12-07T05:38:11;-6.80;99.90
71142;DHT22;58808;59.366;17.970;2023-12-07T05:40:37;-6.80;99.90
71142;DHT22;58808;59.366;17.970;2023-12-07T05:43:02;-6.80;99.90
71142;DHT22;58808;59.366;17.970;2023-12-07T05:45:29;-6.80;99.90
71142;DHT22;58808;59.366;17.970;2023-12-07T05:47:56;-6.70;99.90
71142;DHT22;58808;59.366;17.970;2023-12-07T05:50:21;-6.70;99.90
71142;DHT22;58808;59.366;17.970;2023-12-07T05:52:47;-6.70;99.90
71142;DHT22;58808;59.366;17.970;2023-12-07T05:55:13;-6.70;99.90
71142;DHT22;58808;59.366;17.970;2023-12-07T05:57:39;-6.70;99.90
71142;DHT22;58808;59.366;17.970;2023-12-07T06:00:06;-6.70;99.90
71142;DHT22;58808;59.366;17.970;2023-12-07T06:02:35;-6.70;99.90
71142;DHT22;58808;59.366;17.970;2023-12-07T06:05:02;-6.60;99.90
71142;DHT22;58808;59.366;17.970;2023-12-07T06:07:29;-6.60;99.90
71142;DHT22;58808;59.366;17.970;2023-12-07T06:09:55;-6.60;99.90
71142;DHT22;58808;59.366;17.970;2023-12-07T06:12:21;-6.60;99.90
71142;DHT22;58808;59.366;17.970;2023-12-07T06:14:48;-6.60;99.90
71142;DHT22;58808;59.366;17.970;2023-12-07T06:17:13;-6.50;99.90
71142;DHT22;58808;59.366;17.970;2023-12-07T06:19:39;-6.50;99.90
71142;DHT22;58808;59.366;17.970;2023-12-07T06:22:05;-6.50;99.90
71142;DHT22;58808;59.366;17.970;2023-12-07T06:24:31;-6.50;99.90
71142;DHT22;58808;59.366;17.970;2023-12-07T06:26:58;-6.50;99.90
71142;DHT22;58808;59.366;17.970;2023-12-07T06:29:24;-6.50;99.90
71142;DHT22;58808;59.366;17.970;2023-12-07T06:31:49;-6.40;99.90
71142;DHT22;58808;59.366;17.970;2023-12-07T06:34:15;-6.40;99.90
71142;DHT22;58808;59.366;17.970;2023-12-07T06:36:41;-6.40;99.90
71142;DHT22;58808;59.366;17.970;2023-12-07T06:39:07;-6.40;99.90
71142;DHT22;58808;59.366;17.970;2023-12-07T06:41:33;-6.40;99.90
71142;DHT22;58808;59.366;17.970;2023-12-07T06:43:58;-6.30;99.90
71142;DHT22;58808;59.366;17.970;2023-12-07T06:46:24;-6.30;99.90
71142;DHT22;58808;59.366;17.970;2023-12-07T06:48:50;-6.30;99.90
71142;DHT22;58808;59.366;17.970;2023-12-07T06:51:15;-6.30;99.90
71142;DHT22;58808;59.366;17.970;2023-12-07T06:53:41;-6.30;99.90
71142;DHT22;58808;59.366;17.970;2023-12-07T06:56:08;-6.20;99.90
71142;DHT22;58808;59.366;17.970;2023-12-07T06:58:33;-6.20;99.90
71142;DHT22;58808;59.366;17.970;2023-12-07T07:00:59;-6.20;99.90
71142;DHT22;58808;59.366;17.970;2023-12-07T07:03:25;-6.20;99.90
71142;DHT22;58808;59.366;17.970;2023-12-07T07:05:53;-6.20;99.90
71142;DHT22;58808;59.366;17.970;2023-12-07T07:08:19;-6.10;99.90
71142;DHT22;58808;59.366;17.970;2023-12-07T07:10:45;-6.10;99.90
71142;DHT22;58808;59.366;17.970;2023-12-07T07:13:12;-6.10;99.90
71142;DHT22;58808;59.366;17.970;2023-12-07T07:15:42;-6.10;99.90
71142;DHT22;58808;59.366;17.970;2023-12-07T07:18:09;-6.10;99.90
71142;DHT22;58808;59.366;17.970;2023-12-07T07:20:34;-6.00;99.90
71142;DHT22;58808;59.366;17.970;2023-12-07T07:23:00;-6.00;99.90
71142;DHT22;58808;59.366;17.970;2023-12-07T07:25:26;-6.00;99.90
71142;DHT22;58808;59.366;17.970;2023-12-07T07:27:52;-6.00;99.90
71142;DHT22;58808;59.366;17.970;2023-12-07T07:30:20;-5.90;99.90
71142;DHT22;58808;59.366;17.970;2023-12-07T07:32:46;-5.90;99.90
71142;DHT22;58808;59.366;17.970;2023-12-07T07:35:12;-5.90;99.90
71142;DHT22;58808;59.366;17.970;2023-12-07T07:37:38;-5.90;99.90
71142;DHT22;58808;59.366;17.970;2023-12-07T07:40:04;-5.90;99.90
71142;DHT22;58808;59.366;17.970;2023-12-07T07:42:33;-5.90;99.90
71142;DHT22;58808;59.366;17.970;2023-12-07T07:44:59;-5.90;99.90
71142;DHT22;58808;59.366;17.970;2023-12-07T07:47:24;-5.90;99.90
71142;DHT22;58808;59.366;17.970;2023-12-07T07:49:50;-5.90;99.90
71142;DHT22;58808;59.366;17.970;2023-12-07T07:52:16;-5.80;99.90
71142;DHT22;58808;59.366;17.970;2023-12-07T07:54:42;-5.80;99.90
71142;DHT22;58808;59.366;17.970;2023-12-07T07:57:08;-5.80;99.90
71142;DHT22;58808;59.366;17.970;2023-12-07T07:59:34;-5.70;99.90
71142;DHT22;58808;59.366;17.970;2023-12-07T08:01:59;-5.70;99.90
71142;DHT22;58808;59.366;17.970;2023-12-07T08:04:25;-5.70;99.90
71142;DHT22;58808;59.366;17.970;2023-12-07T08:06:51;-5.70;99.90
71142;DHT22;58808;59.366;17.970;2023-12-07T08:09:16;-5.70;99.90
71142;DHT22;58808;59.366;17.970;2023-12-07T08:11:42;-5.60;99.90
71142;DHT22;58808;59.366;17.970;2023-12-07T08:14:08;-5.60;99.90
71142;DHT22;58808;59.366;17.970;2023-12-07T08:16:34;-5.60;99.90
71142;DHT22;58808;59.366;17.970;2023-12-07T08:19:00;-5.60;99.90
71142;DHT22;58808;59.366;17.970;2023-12-07T08:21:25;-5.60;99.90
71142;DHT22;58808;59.366;17.970;2023-12-07T08:23:51;-5.50;99.90
71142;DHT22;58808;59.366;17.970;2023-12-07T08:26:17;-5.50;99.90
71142;DHT22;58808;59.366;17.970;2023-12-07T08:28:43;-5.50;99.90
71142;DHT22;58808;59.366;17.970;2023-12-07T08:31:10;-5.50;99.90
71142;DHT22;58808;59.366;17.970;2023-12-07T08:33:36;-5.50;99.90
71142;DHT22;58808;59.366;17.970;2023-12-07T08:36:05;-5.40;99.90
71142;DHT22;58808;59.366;17.970;2023-12-07T08:38:32;-5.40;99.90
71142;DHT22;58808;59.366;17.970;2023-12-07T08:40:58;-5.40;99.90
71142;DHT22;58808;59.366;17.970;2023-12-07T08:43:24;-5.40;99.90
71142;DHT22;58808;59.366;17.970;2023-12-07T08:45:52;-5.40;99.90
71142;DHT22;58808;59.366;17.970;2023-12-07T08:48:19;-5.30;99.90
71142;DHT22;58808;59.366;17.970;2023-12-07T08:50:46;-5.30;99.90
71142;DHT22;58808;59.366;17.970;2023-12-07T08:53:11;-5.30;99.90
71142;DHT22;58808;59.366;17.970;2023-12-07T08:55:37;-5.30;99.90
71142;DHT22;58808;59.366;17.970;2023-12-07T08:58:03;-5.30;99.90
71142;DHT22;58808;59.366;17.970;2023-12-07T09:00:32;-5.30;99.90
71142;DHT22;58808;59.366;17.970;2023-12-07T09:02:58;-5.30;99.90
71142;DHT22;58808;59.366;17.970;2023-12-07T09:05:26;-5.30;99.90
71142;DHT22;58808;59.366;17.970;2023-12-07T09:07:52;-5.30;99.90
71142;DHT22;58808;59.366;17.970;2023-12-07T09:10:22;-5.30;99.90
71142;DHT22;58808;59.366;17.970;2023-12-07T09:12:47;-5.20;99.90
71142;DHT22;58808;59.366;17.970;2023-12-07T09:15:13;-5.20;99.90
71142;DHT22;58808;59.366;17.970;2023-12-07T09:17:39;-5.20;99.90
71142;DHT22;58808;59.366;17.970;2023-12-07T09:20:09;-5.20;99.90
71142;DHT22;58808;59.366;17.970;2023-12-07T09:22:47;-5.10;99.90
71142;DHT22;58808;59.366;17.970;2023-12-07T09:25:15;-5.10;99.90
71142;DHT22;58808;59.366;17.970;2023-12-07T09:27:41;-5.10;99.90
71142;DHT22;58808;59.366;17.970;2023-12-07T09:30:10;-5.00;99.90
71142;DHT22;58808;59.366;17.970;2023-12-07T09:32:42;-5.00;99.90
71142;DHT22;58808;59.366;17.970;2023-12-07T09:35:09;-5.00;99.90
71142;DHT22;58808;59.366;17.970;2023-12-07T09:37:45;-5.00;99.90
71142;DHT22;58808;59.366;17.970;2023-12-07T09:40:17;-4.90;99.90
71142;DHT22;58808;59.366;17.970;2023-12-07T09:42:44;-4.90;99.90
71142;DHT22;58808;59.366;17.970;2023-12-07T09:45:10;-4.90;99.90
71142;DHT22;58808;59.366;17.970;2023-12-07T09:47:37;-4.90;99.90
71142;DHT22;58808;59.366;17.970;2023-12-07T09:50:07;-4.80;99.90
71142;DHT22;58808;59.366;17.970;2023-12-07T09:52:34;-4.80;99.90
71142;DHT22;58808;59.366;17.970;2023-12-07T09:55:02;-4.80;99.90
71142;DHT22;58808;59.366;17.970;2023-12-07T09:57:29;-4.70;99.90
71142;DHT22;58808;59.366;17.970;2023-12-07T09:59:58;-4.70;99.90
71142;DHT22;58808;59.366;17.970;2023-12-07T10:02:24;-4.70;99.90
71142;DHT22;58808;59.366;17.970;2023-12-07T10:05:10;-4.70;99.90
71142;DHT22;58808;59.366;17.970;2023-12-07T10:07:40;-4.60;99.90
71142;DHT22;58808;59.366;17.970;2023-12-07T10:10:06;-4.60;99.90
71142;DHT22;58808;59.366;17.970;2023-12-07T10:12:34;-4.60;99.90
71142;DHT22;58808;59.366;17.970;2023-12-07T10:15:01;-4.60;99.90
71142;DHT22;58808;59.366;17.970;2023-12-07T10:17:48;-4.60;99.90
71142;DHT22;58808;59.366;17.970;2023-12-07T10:20:23;-4.60;99.90
71142;DHT22;58808;59.366;17.970;2023-12-07T10:23:01;-4.60;99.90
71142;DHT22;58808;59.366;17.970;2023-12-07T10:25:31;-4.50;99.90
71142;DHT22;58808;59.366;17.970;2023-12-07T10:27:57;-4.50;99.90
71142;DHT22;58808;59.366;17.970;2023-12-07T10:30:23;-4.50;99.90
71142;DHT22;58808;59.366;17.970;2023-12-07T10:32:52;-4.40;99.90
71142;DHT22;58808;59.366;17.970;2023-12-07T10:35:19;-4.40;99.90
71142;DHT22;58808;59.366;17.970;2023-12-07T10:37:46;-4.40;99.90
71142;DHT22;58808;59.366;17.970;2023-12-07T10:40:12;-4.40;99.90
71142;DHT22;58808;59.366;17.970;2023-12-07T10:42:41;-4.30;99.90
71142;DHT22;58808;59.366;17.970;2023-12-07T10:45:07;-4.30;99.90
71142;DHT22;58808;59.366;17.970;2023-12-07T10:47:39;-4.30;99.90
71142;DHT22;58808;59.366;17.970;2023-12-07T10:50:07;-4.30;99.90
71142;DHT22;58808;59.366;17.970;2023-12-07T10:52:51;-4.30;99.90
71142;DHT22;58808;59.366;17.970;2023-12-07T10:55:29;-4.20;99.90
71142;DHT22;58808;59.366;17.970;2023-12-07T10:57:56;-4.20;99.90
71142;DHT22;58808;59.366;17.970;2023-12-07T11:00:25;-4.20;99.90
71142;DHT22;58808;59.366;17.970;2023-12-07T11:02:53;-4.20;99.90
71142;DHT22;58808;59.366;17.970;2023-12-07T11:05:20;-4.20;99.90
71142;DHT22;58808;59.366;17.970;2023-12-07T11:07:58;-4.20;99.90
71142;DHT22;58808;59.366;17.970;2023-12-07T11:10:43;-4.10;99.90
71142;DHT22;58808;59.366;17.970;2023-12-07T11:13:20;-4.10;99.90
71142;DHT22;58808;59.366;17.970;2023-12-07T11:15:48;-4.10;99.90
71142;DHT22;58808;59.366;17.970;2023-12-07T11:18:14;-4.00;99.90
71142;DHT22;58808;59.366;17.970;2023-12-07T11:20:46;-4.00;99.90
71142;DHT22;58808;59.366;17.970;2023-12-07T11:23:17;-4.00;99.90
71142;DHT22;58808;59.366;17.970;2023-12-07T11:25:46;-4.00;99.90
71142;DHT22;58808;59.366;17.970;2023-12-07T11:28:13;-4.00;99.90
71142;DHT22;58808;59.366;17.970;2023-12-07T11:30:44;-3.90;99.90
71142;DHT22;58808;59.366;17.970;2023-12-07T11:33:10;-3.90;99.90
71142;DHT22;58808;59.366;17.970;2023-12-07T11:38:28;-3.80;99.90
71142;DHT22;58808;59.366;17.970;2023-12-07T11:40:55;-3.80;99.90
71142;DHT22;58808;59.366;17.970;2023-12-07T11:45:59;-3.80;99.90
71142;DHT22;58808;59.366;17.970;2023-12-07T11:48:25;-3.80;99.90
71142;DHT22;58808;59.366;17.970;2023-12-07T11:51:02;-3.80;99.90
71142;DHT22;58808;59.366;17.970;2023-12-07T11:53:30;-3.80;99.90
71142;DHT22;58808;59.366;17.970;2023-12-07T11:55:57;-3.70;99.90
71142;DHT22;58808;59.366;17.970;2023-12-07T11:58:26;-3.70;99.90
71142;DHT22;58808;59.366;17.970;2023-12-07T12:00:53;-3.70;99.90
71142;DHT22;58808;59.366;17.970;2023-12-07T12:03:23;-3.60;99.90
71142;DHT22;58808;59.366;17.970;2023-12-07T12:05:48;-3.60;99.90
71142;DHT22;58808;59.366;17.970;2023-12-07T12:08:19;-3.60;99.90
71142;DHT22;58808;59.366;17.970;2023-12-07T12:10:45;-3.60;99.90
71142;DHT22;58808;59.366;17.970;2023-12-07T12:13:11;-3.60;99.90
71142;DHT22;58808;59.366;17.970;2023-12-07T12:15:40;-3.50;99.90
71142;DHT22;58808;59.366;17.970;2023-12-07T12:18:06;-3.60;99.90
71142;DHT22;58808;59.366;17.970;2023-12-07T12:20:32;-3.50;99.90
71142;DHT22;58808;59.366;17.970;2023-12-07T12:22:58;-3.50;99.90
71142;DHT22;58808;59.366;17.970;2023-12-07T12:25:27;-3.50;99.90
71142;DHT22;58808;59.366;17.970;2023-12-07T12:28:03;-3.50;99.90
71142;DHT22;58808;59.366;17.970;2023-12-07T12:30:30;-3.50;99.90
71142;DHT22;58808;59.366;17.970;2023-12-07T12:32:56;-3.40;99.90
71142;DHT22;58808;59.366;17.970;2023-12-07T12:35:22;-3.40;99.90
71142;DHT22;58808;59.366;17.970;2023-12-07T12:37:49;-3.40;99.90
71142;DHT22;58808;59.366;17.970;2023-12-07T12:40:20;-3.40;99.90
71142;DHT22;58808;59.366;17.970;2023-12-07T12:42:47;-3.40;99.90
71142;DHT22;58808;59.366;17.970;2023-12-07T12:45:14;-3.30;99.90
71142;DHT22;58808;59.366;17.970;2023-12-07T12:47:41;-3.30;99.90
71142;DHT22;58808;59.366;17.970;2023-12-07T12:50:11;-3.30;99.90
71142;DHT22;58808;59.366;17.970;2023-12-07T12:52:40;-3.30;99.90
71142;DHT22;58808;59.366;17.970;2023-12-07T12:55:10;-3.30;99.90
71142;DHT22;58808;59.366;17.970;2023-12-07T12:57:36;-3.30;99.90
71142;DHT22;58808;59.366;17.970;2023-12-07T13:00:02;-3.30;99.90
71142;DHT22;58808;59.366;17.970;2023-12-07T13:02:28;-3.30;99.90
71142;DHT22;58808;59.366;17.970;2023-12-07T13:04:54;-3.20;99.90
71142;DHT22;58808;59.366;17.970;2023-12-07T13:07:21;-3.20;99.90
71142;DHT22;58808;59.366;17.970;2023-12-07T13:09:47;-3.20;99.90
71142;DHT22;58808;59.366;17.970;2023-12-07T13:12:12;-3.20;99.90
71142;DHT22;58808;59.366;17.970;2023-12-07T13:14:39;-3.20;99.90
71142;DHT22;58808;59.366;17.970;2023-12-07T13:17:05;-3.20;99.90
71142;DHT22;58808;59.366;17.970;2023-12-07T13:19:33;-3.10;99.90
71142;DHT22;58808;59.366;17.970;2023-12-07T13:22:02;-3.10;99.90
71142;DHT22;58808;59.366;17.970;2023-12-07T13:24:31;-3.10;99.90
71142;DHT22;58808;59.366;17.970;2023-12-07T13:26:57;-3.10;99.90
71142;DHT22;58808;59.366;17.970;2023-12-07T13:29:25;-3.10;99.90
71142;DHT22;58808;59.366;17.970;2023-12-07T13:31:51;-3.10;99.90
71142;DHT22;58808;59.366;17.970;2023-12-07T13:34:17;-3.10;99.90
71142;DHT22;58808;59.366;17.970;2023-12-07T13:36:42;-3.10;99.90
71142;DHT22;58808;59.366;17.970;2023-12-07T13:39:08;-3.10;99.90
71142;DHT22;58808;59.366;17.970;2023-12-07T13:41:34;-3.10;99.90
71142;DHT22;58808;59.366;17.970;2023-12-07T13:44:00;-3.00;99.90
71142;DHT22;58808;59.366;17.970;2023-12-07T13:46:27;-3.00;99.90
71142;DHT22;58808;59.366;17.970;2023-12-07T13:48:52;-3.00;99.90
71142;DHT22;58808;59.366;17.970;2023-12-07T13:51:18;-2.90;99.90
71142;DHT22;58808;59.366;17.970;2023-12-07T13:53:45;-2.90;99.90
71142;DHT22;58808;59.366;17.970;2023-12-07T13:56:11;-2.90;99.90
71142;DHT22;58808;59.366;17.970;2023-12-07T13:58:37;-2.90;99.90
71142;DHT22;58808;59.366;17.970;2023-12-07T14:01:04;-2.80;99.90
71142;DHT22;58808;59.366;17.970;2023-12-07T14:03:30;-2.80;99.90
71142;DHT22;58808;59.366;17.970;2023-12-07T14:05:56;-2.80;99.90
71142;DHT22;58808;59.366;17.970;2023-12-07T14:08:23;-2.80;99.90
71142;DHT22;58808;59.366;17.970;2023-12-07T14:10:48;-2.80;99.90
71142;DHT22;58808;59.366;17.970;2023-12-07T14:13:14;-2.80;99.90
71142;DHT22;58808;59.366;17.970;2023-12-07T14:15:40;-2.70;99.90
71142;DHT22;58808;59.366;17.970;2023-12-07T14:18:06;-2.70;99.90
71142;DHT22;58808;59.366;17.970;2023-12-07T14:20:31;-2.70;99.90
71142;DHT22;58808;59.366;17.970;2023-12-07T14:22:58;-2.70;99.90
71142;DHT22;58808;59.366;17.970;2023-12-07T14:25:29;-2.70;99.90
71142;DHT22;58808;59.366;17.970;2023-12-07T14:27:55;-2.60;99.90
71142;DHT22;58808;59.366;17.970;2023-12-07T14:30:21;-2.60;99.90
71142;DHT22;58808;59.366;17.970;2023-12-07T14:32:48;-2.60;99.90
71142;DHT22;58808;59.366;17.970;2023-12-07T14:35:18;-2.60;99.90
71142;DHT22;58808;59.366;17.970;2023-12-07T14:37:43;-2.60;99.90
71142;DHT22;58808;59.366;17.970;2023-12-07T14:40:10;-2.60;99.90
71142;DHT22;58808;59.366;17.970;2023-12-07T14:42:36;-2.50;99.90
71142;DHT22;58808;59.366;17.970;2023-12-07T14:45:02;-2.50;99.90
71142;DHT22;58808;59.366;17.970;2023-12-07T14:47:28;-2.50;99.90
71142;DHT22;58808;59.366;17.970;2023-12-07T14:49:53;-2.40;99.90
71142;DHT22;58808;59.366;17.970;2023-12-07T14:52:19;-2.40;99.90
71142;DHT22;58808;59.366;17.970;2023-12-07T14:54:45;-2.30;99.90
71142;DHT22;58808;59.366;17.970;2023-12-07T14:57:10;-2.30;99.90
71142;DHT22;58808;59.366;17.970;2023-12-07T14:59:36;-2.30;99.90
71142;DHT22;58808;59.366;17.970;2023-12-07T15:02:02;-2.20;99.90
71142;DHT22;58808;59.366;17.970;2023-12-07T15:04:27;-2.10;99.90
71142;DHT22;58808;59.366;17.970;2023-12-07T15:06:53;-2.10;99.90
71142;DHT22;58808;59.366;17.970;2023-12-07T15:09:20;-2.00;99.90
71142;DHT22;58808;59.366;17.970;2023-12-07T15:11:46;-2.00;99.90
71142;DHT22;58808;59.366;17.970;2023-12-07T15:14:12;-2.00;99.90
71142;DHT22;58808;59.366;17.970;2023-12-07T15:16:38;-2.00;99.90
71142;DHT22;58808;59.366;17.970;2023-12-07T15:19:04;-1.90;99.90